sensor_id;sensor_type;location;lat;lon;timestamp;P1;durP1;ratioP1;P2;durP2;ratioP2
6131;SDS011;3097;42.692;23.278;2023-04-07T00:00:17;13.40;;;8.10;;
6131;SDS011;3097;42.692;23.278;2023-04-07T00:02:43;14.83;;;8.73;;
6131;SDS011;3097;42.692;23.278;2023-04-07T00:05:08;13.23;;;8.10;;
6131;SDS011;3097;42.692;23.278;2023-04-07T00:07:34;14.40;;;7.70;;
6131;SDS011;3097;42.692;23.278;2023-04-07T00:09:59;12.63;;;7.77;;
6131;SDS011;3097;42.692;23.278;2023-04-07T00:12:25;14.00;;;8.67;;
6131;SDS011;3097;42.692;23.278;2023-04-07T00:14:50;11.77;;;7.83;;
6131;SDS011;3097;42.692;23.278;2023-04-07T00:17:16;15.73;;;7.90;;
6131;SDS011;3097;42.692;23.278;2023-04-07T00:19:41;13.37;;;8.43;;
6131;SDS011;3097;42.692;23.278;2023-04-07T00:22:08;12.60;;;7.77;;
6131;SDS011;3097;42.692;23.278;2023-04-07T00:24:33;8.37;;;7.00;;
6131;SDS011;3097;42.692;23.278;2023-04-07T00:26:59;12.83;;;8.20;;
6131;SDS011;3097;42.692;23.278;2023-04-07T00:29:25;11.87;;;7.83;;
6131;SDS011;3097;42.692;23.278;2023-04-07T00:31:50;9.37;;;7.43;;
6131;SDS011;3097;42.692;23.278;2023-04-07T00:34:15;10.33;;;7.77;;
6131;SDS011;3097;42.692;23.278;2023-04-07T00:36:41;10.93;;;7.70;;
6131;SDS011;3097;42.692;23.278;2023-04-07T00:39:06;12.87;;;8.67;;
6131;SDS011;3097;42.692;23.278;2023-04-07T00:41:33;13.83;;;7.80;;
6131;SDS011;3097;42.692;23.278;2023-04-07T00:43:59;13.97;;;8.53;;
6131;SDS011;3097;42.692;23.278;2023-04-07T00:46:24;12.00;;;7.87;;
6131;SDS011;3097;42.692;23.278;2023-04-07T00:48:50;12.23;;;8.00;;
6131;SDS011;3097;42.692;23.278;2023-04-07T00:51:15;13.13;;;7.37;;
6131;SDS011;3097;42.692;23.278;2023-04-07T00:53:42;13.60;;;7.97;;
6131;SDS011;3097;42.692;23.278;2023-04-07T00:56:07;10.70;;;7.53;;
6131;SDS011;3097;42.692;23.278;2023-04-07T00:58:33;10.97;;;7.77;;
6131;SDS011;3097;42.692;23.278;2023-04-07T01:04:02;11.47;;;7.83;;
6131;SDS011;3097;42.692;23.278;2023-04-07T01:06:33;10.47;;;7.23;;
6131;SDS011;3097;42.692;23.278;2023-04-07T01:09:04;10.03;;;7.17;;
6131;SDS011;3097;42.692;23.278;2023-04-07T01:11:48;13.23;;;8.03;;
6131;SDS011;3097;42.692;23.278;2023-04-07T01:14:18;14.50;;;7.90;;
6131;SDS011;3097;42.692;23.278;2023-04-07T01:16:45;13.03;;;7.97;;
6131;SDS011;3097;42.692;23.278;2023-04-07T01:22:15;12.53;;;7.53;;
6131;SDS011;3097;42.692;23.278;2023-04-07T01:24:52;10.57;;;7.30;;
6131;SDS011;3097;42.692;23.278;2023-04-07T01:27:24;14.57;;;7.90;;
6131;SDS011;3097;42.692;23.278;2023-04-07T01:29:57;12.30;;;7.80;;
6131;SDS011;3097;42.692;23.278;2023-04-07T01:32:25;12.90;;;7.73;;
6131;SDS011;3097;42.692;23.278;2023-04-07T01:34:52;15.50;;;7.70;;
6131;SDS011;3097;42.692;23.278;2023-04-07T01:37:20;11.07;;;7.67;;
6131;SDS011;3097;42.692;23.278;2023-04-07T01:39:46;15.00;;;7.97;;
6131;SDS011;3097;42.692;23.278;2023-04-07T01:42:12;12.87;;;7.43;;
6131;SDS011;3097;42.692;23.278;2023-04-07T01:44:38;9.80;;;7.53;;
6131;SDS011;3097;42.692;23.278;2023-04-07T01:47:05;10.47;;;7.57;;
6131;SDS011;3097;42.692;23.278;2023-04-07T01:49:31;14.60;;;8.13;;
6131;SDS011;3097;42.692;23.278;2023-04-07T01:51:59;12.10;;;7.97;;
6131;SDS011;3097;42.692;23.278;2023-04-07T01:54:25;15.60;;;7.30;;
6131;SDS011;3097;42.692;23.278;2023-04-07T01:56:52;10.17;;;7.50;;
6131;SDS011;3097;42.692;23.278;2023-04-07T01:59:17;10.50;;;6.60;;
6131;SDS011;3097;42.692;23.278;2023-04-07T02:01:43;12.53;;;7.23;;
6131;SDS011;3097;42.692;23.278;2023-04-07T02:04:10;12.13;;;7.70;;
6131;SDS011;3097;42.692;23.278;2023-04-07T02:06:44;8.63;;;6.27;;
6131;SDS011;3097;42.692;23.278;2023-04-07T02:09:14;9.40;;;6.97;;
6131;SDS011;3097;42.692;23.278;2023-04-07T02:11:41;9.07;;;6.97;;
6131;SDS011;3097;42.692;23.278;2023-04-07T02:14:09;8.67;;;6.90;;
6131;SDS011;3097;42.692;23.278;2023-04-07T02:16:36;11.77;;;7.00;;
6131;SDS011;3097;42.692;23.278;2023-04-07T02:19:03;11.43;;;7.23;;
6131;SDS011;3097;42.692;23.278;2023-04-07T02:21:29;9.83;;;6.00;;
6131;SDS011;3097;42.692;23.278;2023-04-07T02:23:59;8.80;;;6.40;;
6131;SDS011;3097;42.692;23.278;2023-04-07T02:26:25;9.37;;;6.63;;
6131;SDS011;3097;42.692;23.278;2023-04-07T02:28:51;9.27;;;6.93;;
6131;SDS011;3097;42.692;23.278;2023-04-07T02:31:16;12.07;;;6.20;;
6131;SDS011;3097;42.692;23.278;2023-04-07T02:33:42;8.60;;;6.20;;
6131;SDS011;3097;42.692;23.278;2023-04-07T02:36:07;10.13;;;6.83;;
6131;SDS011;3097;42.692;23.278;2023-04-07T02:38:33;13.03;;;7.13;;
6131;SDS011;3097;42.692;23.278;2023-04-07T02:40:58;9.23;;;6.47;;
6131;SDS011;3097;42.692;23.278;2023-04-07T02:43:23;9.17;;;6.70;;
6131;SDS011;3097;42.692;23.278;2023-04-07T02:45:49;7.37;;;6.33;;
6131;SDS011;3097;42.692;23.278;2023-04-07T02:48:15;9.10;;;6.70;;
6131;SDS011;3097;42.692;23.278;2023-04-07T02:50:40;10.93;;;5.87;;
6131;SDS011;3097;42.692;23.278;2023-04-07T02:53:06;9.60;;;6.33;;
6131;SDS011;3097;42.692;23.278;2023-04-07T02:55:31;8.67;;;6.17;;
6131;SDS011;3097;42.692;23.278;2023-04-07T02:57:57;11.87;;;6.60;;
6131;SDS011;3097;42.692;23.278;2023-04-07T03:00:22;7.43;;;5.83;;
6131;SDS011;3097;42.692;23.278;2023-04-07T03:02:47;10.80;;;7.10;;
6131;SDS011;3097;42.692;23.278;2023-04-07T03:05:13;8.53;;;6.97;;
6131;SDS011;3097;42.692;23.278;2023-04-07T03:07:38;10.80;;;7.00;;
6131;SDS011;3097;42.692;23.278;2023-04-07T03:10:04;8.47;;;6.53;;
6131;SDS011;3097;42.692;23.278;2023-04-07T03:12:30;9.30;;;6.97;;
6131;SDS011;3097;42.692;23.278;2023-04-07T03:14:55;10.67;;;7.03;;
6131;SDS011;3097;42.692;23.278;2023-04-07T03:17:21;9.80;;;7.00;;
6131;SDS011;3097;42.692;23.278;2023-04-07T03:19:46;8.90;;;6.80;;
6131;SDS011;3097;42.692;23.278;2023-04-07T03:22:12;11.23;;;7.73;;
6131;SDS011;3097;42.692;23.278;2023-04-07T03:24:37;10.33;;;7.07;;
6131;SDS011;3097;42.692;23.278;2023-04-07T03:27:04;10.33;;;7.40;;
6131;SDS011;3097;42.692;23.278;2023-04-07T03:29:30;9.60;;;6.57;;
6131;SDS011;3097;42.692;23.278;2023-04-07T03:31:55;9.03;;;7.40;;
6131;SDS011;3097;42.692;23.278;2023-04-07T03:34:21;12.07;;;7.97;;
6131;SDS011;3097;42.692;23.278;2023-04-07T03:36:50;9.77;;;7.00;;
6131;SDS011;3097;42.692;23.278;2023-04-07T03:39:15;11.67;;;7.27;;
6131;SDS011;3097;42.692;23.278;2023-04-07T03:41:41;10.50;;;6.77;;
6131;SDS011;3097;42.692;23.278;2023-04-07T03:44:06;10.70;;;6.67;;
6131;SDS011;3097;42.692;23.278;2023-04-07T03:46:32;10.27;;;7.07;;
6131;SDS011;3097;42.692;23.278;2023-04-07T03:48:57;10.83;;;7.50;;
6131;SDS011;3097;42.692;23.278;2023-04-07T03:51:23;8.33;;;6.37;;
6131;SDS011;3097;42.692;23.278;2023-04-07T03:53:48;8.10;;;7.07;;
6131;SDS011;3097;42.692;23.278;2023-04-07T03:56:13;9.97;;;7.13;;
6131;SDS011;3097;42.692;23.278;2023-04-07T03:58:39;8.67;;;6.60;;
6131;SDS011;3097;42.692;23.278;2023-04-07T04:01:06;10.67;;;6.60;;
6131;SDS011;3097;42.692;23.278;2023-04-07T04:03:32;12.20;;;6.77;;
6131;SDS011;3097;42.692;23.278;2023-04-07T04:05:58;8.70;;;6.83;;
6131;SDS011;3097;42.692;23.278;2023-04-07T04:08:23;10.63;;;7.00;;
6131;SDS011;3097;42.692;23.278;2023-04-07T04:10:48;8.93;;;6.83;;
6131;SDS011;3097;42.692;23.278;2023-04-07T04:13:14;10.10;;;6.30;;
6131;SDS011;3097;42.692;23.278;2023-04-07T04:15:39;12.33;;;7.07;;
6131;SDS011;3097;42.692;23.278;2023-04-07T04:18:05;14.33;;;8.50;;
6131;SDS011;3097;42.692;23.278;2023-04-07T04:20:33;21.20;;;9.60;;
6131;SDS011;3097;42.692;23.278;2023-04-07T04:22:58;14.07;;;8.27;;
6131;SDS011;3097;42.692;23.278;2023-04-07T04:25:24;8.93;;;7.00;;
6131;SDS011;3097;42.692;23.278;2023-04-07T04:27:50;10.03;;;6.53;;
6131;SDS011;3097;42.692;23.278;2023-04-07T04:30:16;8.93;;;6.63;;
6131;SDS011;3097;42.692;23.278;2023-04-07T04:32:44;10.70;;;6.87;;
6131;SDS011;3097;42.692;23.278;2023-04-07T04:35:10;9.50;;;6.63;;
6131;SDS011;3097;42.692;23.278;2023-04-07T04:37:35;10.27;;;6.50;;
6131;SDS011;3097;42.692;23.278;2023-04-07T04:40:01;14.27;;;7.50;;
6131;SDS011;3097;42.692;23.278;2023-04-07T04:42:26;11.63;;;7.73;;
6131;SDS011;3097;42.692;23.278;2023-04-07T04:44:52;24.47;;;13.67;;
6131;SDS011;3097;42.692;23.278;2023-04-07T04:47:18;15.77;;;8.87;;
6131;SDS011;3097;42.692;23.278;2023-04-07T04:49:43;15.63;;;9.23;;
6131;SDS011;3097;42.692;23.278;2023-04-07T04:52:09;21.07;;;10.60;;
6131;SDS011;3097;42.692;23.278;2023-04-07T04:54:34;21.50;;;11.73;;
6131;SDS011;3097;42.692;23.278;2023-04-07T04:57:00;21.23;;;11.77;;
6131;SDS011;3097;42.692;23.278;2023-04-07T04:59:25;21.43;;;11.70;;
6131;SDS011;3097;42.692;23.278;2023-04-07T05:01:51;23.37;;;11.47;;
6131;SDS011;3097;42.692;23.278;2023-04-07T05:04:16;22.27;;;12.00;;
6131;SDS011;3097;42.692;23.278;2023-04-07T05:06:42;23.93;;;12.70;;
6131;SDS011;3097;42.692;23.278;2023-04-07T05:09:08;20.47;;;12.07;;
6131;SDS011;3097;42.692;23.278;2023-04-07T05:11:33;20.57;;;12.00;;
6131;SDS011;3097;42.692;23.278;2023-04-07T05:13:59;21.50;;;12.57;;
6131;SDS011;3097;42.692;23.278;2023-04-07T05:16:25;25.10;;;13.13;;
6131;SDS011;3097;42.692;23.278;2023-04-07T05:18:51;27.60;;;14.47;;
6131;SDS011;3097;42.692;23.278;2023-04-07T05:21:17;32.77;;;14.10;;
6131;SDS011;3097;42.692;23.278;2023-04-07T05:23:44;23.93;;;14.27;;
6131;SDS011;3097;42.692;23.278;2023-04-07T05:26:10;25.13;;;14.10;;
6131;SDS011;3097;42.692;23.278;2023-04-07T05:28:35;28.27;;;14.97;;
6131;SDS011;3097;42.692;23.278;2023-04-07T05:31:01;27.63;;;14.30;;
6131;SDS011;3097;42.692;23.278;2023-04-07T05:33:26;25.60;;;14.20;;
6131;SDS011;3097;42.692;23.278;2023-04-07T05:35:52;26.83;;;14.43;;
6131;SDS011;3097;42.692;23.278;2023-04-07T05:38:17;22.50;;;13.57;;
6131;SDS011;3097;42.692;23.278;2023-04-07T05:40:42;25.60;;;13.60;;
6131;SDS011;3097;42.692;23.278;2023-04-07T05:43:08;25.83;;;14.43;;
6131;SDS011;3097;42.692;23.278;2023-04-07T05:45:33;25.17;;;15.33;;
6131;SDS011;3097;42.692;23.278;2023-04-07T05:47:59;28.43;;;15.90;;
6131;SDS011;3097;42.692;23.278;2023-04-07T05:50:24;28.77;;;15.27;;
6131;SDS011;3097;42.692;23.278;2023-04-07T05:52:50;25.57;;;14.90;;
6131;SDS011;3097;42.692;23.278;2023-04-07T05:55:15;27.93;;;15.37;;
6131;SDS011;3097;42.692;23.278;2023-04-07T05:57:41;27.80;;;14.50;;
6131;SDS011;3097;42.692;23.278;2023-04-07T06:00:06;23.70;;;14.97;;
6131;SDS011;3097;42.692;23.278;2023-04-07T06:02:33;33.30;;;16.20;;
6131;SDS011;3097;42.692;23.278;2023-04-07T06:04:58;30.40;;;17.73;;
6131;SDS011;3097;42.692;23.278;2023-04-07T06:07:24;26.97;;;16.37;;
6131;SDS011;3097;42.692;23.278;2023-04-07T06:09:50;43.57;;;21.97;;
6131;SDS011;3097;42.692;23.278;2023-04-07T06:12:15;12.63;;;8.93;;
6131;SDS011;3097;42.692;23.278;2023-04-07T06:14:41;7.17;;;6.47;;
6131;SDS011;3097;42.692;23.278;2023-04-07T06:17:06;8.23;;;6.20;;
6131;SDS011;3097;42.692;23.278;2023-04-07T06:19:50;9.77;;;7.03;;
6131;SDS011;3097;42.692;23.278;2023-04-07T06:22:15;11.03;;;7.23;;
6131;SDS011;3097;42.692;23.278;2023-04-07T06:24:41;9.90;;;6.87;;
6131;SDS011;3097;42.692;23.278;2023-04-07T06:27:06;10.07;;;7.13;;
6131;SDS011;3097;42.692;23.278;2023-04-07T06:29:32;9.30;;;6.97;;
6131;SDS011;3097;42.692;23.278;2023-04-07T06:31:58;7.37;;;6.67;;
6131;SDS011;3097;42.692;23.278;2023-04-07T06:34:24;16.13;;;9.00;;
6131;SDS011;3097;42.692;23.278;2023-04-07T06:36:50;8.03;;;6.73;;
6131;SDS011;3097;42.692;23.278;2023-04-07T06:39:16;28.27;;;15.77;;
6131;SDS011;3097;42.692;23.278;2023-04-07T06:41:42;39.43;;;23.77;;
6131;SDS011;3097;42.692;23.278;2023-04-07T06:44:08;37.13;;;24.10;;
6131;SDS011;3097;42.692;23.278;2023-04-07T06:46:36;28.10;;;19.17;;
6131;SDS011;3097;42.692;23.278;2023-04-07T06:49:03;9.70;;;8.23;;
6131;SDS011;3097;42.692;23.278;2023-04-07T06:51:29;23.67;;;16.23;;
6131;SDS011;3097;42.692;23.278;2023-04-07T06:53:55;16.00;;;11.03;;
6131;SDS011;3097;42.692;23.278;2023-04-07T06:56:21;11.90;;;9.30;;
6131;SDS011;3097;42.692;23.278;2023-04-07T06:58:47;10.60;;;8.70;;
6131;SDS011;3097;42.692;23.278;2023-04-07T07:01:12;27.07;;;16.50;;
6131;SDS011;3097;42.692;23.278;2023-04-07T07:03:38;31.40;;;18.47;;
6131;SDS011;3097;42.692;23.278;2023-04-07T07:06:03;9.53;;;7.47;;
6131;SDS011;3097;42.692;23.278;2023-04-07T07:08:29;12.50;;;8.90;;
6131;SDS011;3097;42.692;23.278;2023-04-07T07:10:55;7.07;;;6.37;;
6131;SDS011;3097;42.692;23.278;2023-04-07T07:13:21;19.03;;;11.53;;
6131;SDS011;3097;42.692;23.278;2023-04-07T07:15:48;18.60;;;9.07;;
6131;SDS011;3097;42.692;23.278;2023-04-07T07:18:14;9.83;;;6.33;;
6131;SDS011;3097;42.692;23.278;2023-04-07T07:20:41;14.90;;;8.07;;
6131;SDS011;3097;42.692;23.278;2023-04-07T07:23:06;12.80;;;8.30;;
6131;SDS011;3097;42.692;23.278;2023-04-07T07:25:32;14.00;;;8.47;;
6131;SDS011;3097;42.692;23.278;2023-04-07T07:27:57;10.87;;;6.67;;
6131;SDS011;3097;42.692;23.278;2023-04-07T07:30:22;11.80;;;8.97;;
6131;SDS011;3097;42.692;23.278;2023-04-07T07:32:48;12.90;;;8.57;;
6131;SDS011;3097;42.692;23.278;2023-04-07T07:35:15;15.50;;;10.00;;
6131;SDS011;3097;42.692;23.278;2023-04-07T07:37:41;9.80;;;7.80;;
6131;SDS011;3097;42.692;23.278;2023-04-07T07:40:08;13.20;;;7.83;;
6131;SDS011;3097;42.692;23.278;2023-04-07T07:42:34;10.83;;;7.57;;
6131;SDS011;3097;42.692;23.278;2023-04-07T07:45:00;19.00;;;10.43;;
6131;SDS011;3097;42.692;23.278;2023-04-07T07:47:25;24.27;;;10.93;;
6131;SDS011;3097;42.692;23.278;2023-04-07T07:49:51;17.97;;;9.53;;
6131;SDS011;3097;42.692;23.278;2023-04-07T07:52:16;19.67;;;10.87;;
6131;SDS011;3097;42.692;23.278;2023-04-07T07:54:42;15.63;;;8.73;;
6131;SDS011;3097;42.692;23.278;2023-04-07T07:57:07;8.43;;;5.93;;
6131;SDS011;3097;42.692;23.278;2023-04-07T07:59:33;10.03;;;7.77;;
6131;SDS011;3097;42.692;23.278;2023-04-07T08:01:58;12.87;;;8.33;;
6131;SDS011;3097;42.692;23.278;2023-04-07T08:04:24;7.93;;;6.70;;
6131;SDS011;3097;42.692;23.278;2023-04-07T08:06:50;11.27;;;7.47;;
6131;SDS011;3097;42.692;23.278;2023-04-07T08:09:16;7.90;;;6.40;;
6131;SDS011;3097;42.692;23.278;2023-04-07T08:11:42;17.83;;;8.73;;
6131;SDS011;3097;42.692;23.278;2023-04-07T08:14:08;17.30;;;10.00;;
6131;SDS011;3097;42.692;23.278;2023-04-07T08:16:33;10.67;;;6.80;;
6131;SDS011;3097;42.692;23.278;2023-04-07T08:18:59;15.30;;;8.13;;
6131;SDS011;3097;42.692;23.278;2023-04-07T08:21:24;17.27;;;9.77;;
6131;SDS011;3097;42.692;23.278;2023-04-07T08:23:52;8.80;;;7.17;;
6131;SDS011;3097;42.692;23.278;2023-04-07T08:26:18;11.83;;;8.23;;
6131;SDS011;3097;42.692;23.278;2023-04-07T08:28:43;10.73;;;7.53;;
6131;SDS011;3097;42.692;23.278;2023-04-07T08:31:09;10.70;;;7.33;;
6131;SDS011;3097;42.692;23.278;2023-04-07T08:33:34;12.47;;;8.33;;
6131;SDS011;3097;42.692;23.278;2023-04-07T08:36:00;8.03;;;5.90;;
6131;SDS011;3097;42.692;23.278;2023-04-07T08:38:25;20.13;;;10.40;;
6131;SDS011;3097;42.692;23.278;2023-04-07T08:40:52;14.67;;;8.20;;
6131;SDS011;3097;42.692;23.278;2023-04-07T08:43:22;11.80;;;7.70;;
6131;SDS011;3097;42.692;23.278;2023-04-07T08:45:50;11.20;;;7.83;;
6131;SDS011;3097;42.692;23.278;2023-04-07T08:48:18;6.53;;;5.97;;
6131;SDS011;3097;42.692;23.278;2023-04-07T08:50:47;7.60;;;6.40;;
6131;SDS011;3097;42.692;23.278;2023-04-07T08:53:17;7.00;;;6.37;;
6131;SDS011;3097;42.692;23.278;2023-04-07T08:55:47;15.07;;;8.93;;
6131;SDS011;3097;42.692;23.278;2023-04-07T08:58:12;9.60;;;8.30;;
6131;SDS011;3097;42.692;23.278;2023-04-07T09:00:39;14.73;;;8.53;;
6131;SDS011;3097;42.692;23.278;2023-04-07T09:03:09;11.27;;;7.70;;
6131;SDS011;3097;42.692;23.278;2023-04-07T09:05:35;12.80;;;8.73;;
6131;SDS011;3097;42.692;23.278;2023-04-07T09:08:03;11.03;;;7.97;;
6131;SDS011;3097;42.692;23.278;2023-04-07T09:10:29;13.93;;;8.57;;
6131;SDS011;3097;42.692;23.278;2023-04-07T09:12:56;17.07;;;9.07;;
6131;SDS011;3097;42.692;23.278;2023-04-07T09:15:23;8.90;;;6.97;;
6131;SDS011;3097;42.692;23.278;2023-04-07T09:17:50;10.47;;;7.73;;
6131;SDS011;3097;42.692;23.278;2023-04-07T09:20:16;12.93;;;8.00;;
6131;SDS011;3097;42.692;23.278;2023-04-07T09:22:45;12.67;;;8.47;;
6131;SDS011;3097;42.692;23.278;2023-04-07T09:25:11;9.57;;;7.20;;
6131;SDS011;3097;42.692;23.278;2023-04-07T09:27:37;12.03;;;8.80;;
6131;SDS011;3097;42.692;23.278;2023-04-07T09:32:40;12.60;;;8.47;;
6131;SDS011;3097;42.692;23.278;2023-04-07T09:35:06;12.37;;;8.57;;
6131;SDS011;3097;42.692;23.278;2023-04-07T09:37:33;15.87;;;8.27;;
6131;SDS011;3097;42.692;23.278;2023-04-07T09:39:58;10.97;;;7.00;;
6131;SDS011;3097;42.692;23.278;2023-04-07T09:42:26;11.27;;;8.00;;
6131;SDS011;3097;42.692;23.278;2023-04-07T09:44:56;12.93;;;9.33;;
6131;SDS011;3097;42.692;23.278;2023-04-07T09:47:30;11.97;;;8.40;;
6131;SDS011;3097;42.692;23.278;2023-04-07T09:49:56;9.37;;;7.40;;
6131;SDS011;3097;42.692;23.278;2023-04-07T09:55:15;13.57;;;9.03;;
6131;SDS011;3097;42.692;23.278;2023-04-07T09:57:44;13.87;;;9.83;;
6131;SDS011;3097;42.692;23.278;2023-04-07T10:00:10;10.60;;;7.87;;
6131;SDS011;3097;42.692;23.278;2023-04-07T10:02:36;12.00;;;7.83;;
6131;SDS011;3097;42.692;23.278;2023-04-07T10:05:02;15.13;;;9.27;;
6131;SDS011;3097;42.692;23.278;2023-04-07T10:07:28;11.57;;;9.10;;
6131;SDS011;3097;42.692;23.278;2023-04-07T10:09:56;11.80;;;8.90;;
6131;SDS011;3097;42.692;23.278;2023-04-07T10:12:21;16.90;;;9.80;;
6131;SDS011;3097;42.692;23.278;2023-04-07T10:14:48;12.47;;;9.57;;
6131;SDS011;3097;42.692;23.278;2023-04-07T10:17:15;12.80;;;9.47;;
6131;SDS011;3097;42.692;23.278;2023-04-07T10:19:44;9.30;;;7.93;;
6131;SDS011;3097;42.692;23.278;2023-04-07T10:22:12;14.20;;;9.77;;
6131;SDS011;3097;42.692;23.278;2023-04-07T10:27:20;13.70;;;9.10;;
6131;SDS011;3097;42.692;23.278;2023-04-07T10:29:51;13.70;;;9.00;;
6131;SDS011;3097;42.692;23.278;2023-04-07T10:32:18;14.57;;;9.30;;
6131;SDS011;3097;42.692;23.278;2023-04-07T10:37:13;10.27;;;8.07;;
6131;SDS011;3097;42.692;23.278;2023-04-07T10:39:39;13.73;;;8.27;;
6131;SDS011;3097;42.692;23.278;2023-04-07T10:42:05;10.53;;;7.50;;
6131;SDS011;3097;42.692;23.278;2023-04-07T10:47:06;10.47;;;8.03;;
6131;SDS011;3097;42.692;23.278;2023-04-07T10:49:34;13.43;;;8.47;;
6131;SDS011;3097;42.692;23.278;2023-04-07T10:52:33;9.77;;;8.37;;
6131;SDS011;3097;42.692;23.278;2023-04-07T11:03:30;11.17;;;8.57;;
6131;SDS011;3097;42.692;23.278;2023-04-07T11:08:32;9.77;;;6.67;;
6131;SDS011;3097;42.692;23.278;2023-04-07T11:11:02;12.63;;;8.33;;
6131;SDS011;3097;42.692;23.278;2023-04-07T11:13:48;11.80;;;8.40;;
6131;SDS011;3097;42.692;23.278;2023-04-07T11:16:16;12.73;;;9.07;;
6131;SDS011;3097;42.692;23.278;2023-04-07T11:18:43;12.03;;;9.13;;
6131;SDS011;3097;42.692;23.278;2023-04-07T11:21:10;10.63;;;8.53;;
6131;SDS011;3097;42.692;23.278;2023-04-07T11:23:39;9.27;;;7.77;;
6131;SDS011;3097;42.692;23.278;2023-04-07T11:26:07;9.37;;;7.90;;
6131;SDS011;3097;42.692;23.278;2023-04-07T11:28:35;11.63;;;8.47;;
6131;SDS011;3097;42.692;23.278;2023-04-07T11:31:29;11.37;;;8.60;;
6131;SDS011;3097;42.692;23.278;2023-04-07T11:33:59;9.50;;;7.70;;
6131;SDS011;3097;42.692;23.278;2023-04-07T11:36:33;10.93;;;7.40;;
6131;SDS011;3097;42.692;23.278;2023-04-07T11:39:04;11.40;;;9.17;;
6131;SDS011;3097;42.692;23.278;2023-04-07T11:41:30;17.73;;;8.70;;
6131;SDS011;3097;42.692;23.278;2023-04-07T11:44:31;13.30;;;9.63;;
6131;SDS011;3097;42.692;23.278;2023-04-07T11:46:55;11.97;;;8.53;;
6131;SDS011;3097;42.692;23.278;2023-04-07T11:49:22;11.37;;;8.47;;
6131;SDS011;3097;42.692;23.278;2023-04-07T11:51:56;10.60;;;8.20;;
6131;SDS011;3097;42.692;23.278;2023-04-07T11:54:23;12.13;;;9.30;;
6131;SDS011;3097;42.692;23.278;2023-04-07T11:56:48;13.40;;;8.67;;
6131;SDS011;3097;42.692;23.278;2023-04-07T11:59:19;11.73;;;7.97;;
6131;SDS011;3097;42.692;23.278;2023-04-07T12:01:48;16.30;;;10.33;;
6131;SDS011;3097;42.692;23.278;2023-04-07T12:04:15;10.40;;;7.27;;
6131;SDS011;3097;42.692;23.278;2023-04-07T12:06:41;10.60;;;7.97;;
6131;SDS011;3097;42.692;23.278;2023-04-07T12:09:08;11.47;;;8.30;;
6131;SDS011;3097;42.692;23.278;2023-04-07T12:11:49;13.27;;;8.07;;
6131;SDS011;3097;42.692;23.278;2023-04-07T12:14:15;14.63;;;9.00;;
6131;SDS011;3097;42.692;23.278;2023-04-07T12:16:40;15.20;;;8.53;;
6131;SDS011;3097;42.692;23.278;2023-04-07T12:19:06;7.87;;;7.07;;
6131;SDS011;3097;42.692;23.278;2023-04-07T12:21:32;8.63;;;7.50;;
6131;SDS011;3097;42.692;23.278;2023-04-07T12:23:57;9.37;;;8.00;;
6131;SDS011;3097;42.692;23.278;2023-04-07T12:26:23;10.57;;;8.67;;
6131;SDS011;3097;42.692;23.278;2023-04-07T12:28:49;11.87;;;8.77;;
6131;SDS011;3097;42.692;23.278;2023-04-07T12:31:15;15.20;;;10.10;;
6131;SDS011;3097;42.692;23.278;2023-04-07T12:33:40;11.73;;;8.97;;
6131;SDS011;3097;42.692;23.278;2023-04-07T12:36:06;14.07;;;10.50;;
6131;SDS011;3097;42.692;23.278;2023-04-07T12:38:32;13.47;;;9.50;;
6131;SDS011;3097;42.692;23.278;2023-04-07T12:40:57;12.67;;;8.77;;
6131;SDS011;3097;42.692;23.278;2023-04-07T12:43:30;14.40;;;8.03;;
6131;SDS011;3097;42.692;23.278;2023-04-07T12:45:56;9.07;;;8.17;;
6131;SDS011;3097;42.692;23.278;2023-04-07T12:48:21;11.63;;;9.17;;
6131;SDS011;3097;42.692;23.278;2023-04-07T12:50:47;14.10;;;9.47;;
6131;SDS011;3097;42.692;23.278;2023-04-07T12:53:13;13.00;;;9.80;;
6131;SDS011;3097;42.692;23.278;2023-04-07T12:55:39;13.40;;;8.80;;
6131;SDS011;3097;42.692;23.278;2023-04-07T12:58:04;11.77;;;8.93;;
6131;SDS011;3097;42.692;23.278;2023-04-07T13:00:31;11.30;;;8.50;;
6131;SDS011;3097;42.692;23.278;2023-04-07T13:02:56;13.00;;;9.30;;
6131;SDS011;3097;42.692;23.278;2023-04-07T13:05:22;14.33;;;9.67;;
6131;SDS011;3097;42.692;23.278;2023-04-07T13:07:48;13.10;;;9.57;;
6131;SDS011;3097;42.692;23.278;2023-04-07T13:10:13;11.27;;;8.60;;
6131;SDS011;3097;42.692;23.278;2023-04-07T13:12:40;10.13;;;8.87;;
6131;SDS011;3097;42.692;23.278;2023-04-07T13:15:06;11.77;;;8.87;;
6131;SDS011;3097;42.692;23.278;2023-04-07T13:17:32;12.13;;;8.67;;
6131;SDS011;3097;42.692;23.278;2023-04-07T13:20:02;9.13;;;8.17;;
6131;SDS011;3097;42.692;23.278;2023-04-07T13:22:30;10.80;;;8.30;;
6131;SDS011;3097;42.692;23.278;2023-04-07T13:24:55;10.97;;;8.77;;
6131;SDS011;3097;42.692;23.278;2023-04-07T13:27:21;9.93;;;8.10;;
6131;SDS011;3097;42.692;23.278;2023-04-07T13:29:46;16.87;;;10.23;;
6131;SDS011;3097;42.692;23.278;2023-04-07T13:32:12;15.27;;;10.10;;
6131;SDS011;3097;42.692;23.278;2023-04-07T13:34:39;16.40;;;10.07;;
6131;SDS011;3097;42.692;23.278;2023-04-07T13:37:05;13.13;;;9.60;;
6131;SDS011;3097;42.692;23.278;2023-04-07T13:39:31;16.43;;;10.70;;
6131;SDS011;3097;42.692;23.278;2023-04-07T13:41:57;11.33;;;9.00;;
6131;SDS011;3097;42.692;23.278;2023-04-07T13:44:26;11.47;;;8.33;;
6131;SDS011;3097;42.692;23.278;2023-04-07T13:46:53;11.90;;;9.47;;
6131;SDS011;3097;42.692;23.278;2023-04-07T13:49:19;15.90;;;10.30;;
6131;SDS011;3097;42.692;23.278;2023-04-07T13:51:45;12.67;;;9.13;;
6131;SDS011;3097;42.692;23.278;2023-04-07T13:54:11;12.03;;;9.03;;
6131;SDS011;3097;42.692;23.278;2023-04-07T13:56:36;11.80;;;8.77;;
6131;SDS011;3097;42.692;23.278;2023-04-07T13:59:05;10.60;;;8.57;;
6131;SDS011;3097;42.692;23.278;2023-04-07T14:01:31;13.33;;;9.03;;
6131;SDS011;3097;42.692;23.278;2023-04-07T14:03:58;12.57;;;8.87;;
6131;SDS011;3097;42.692;23.278;2023-04-07T14:06:23;11.40;;;8.27;;
6131;SDS011;3097;42.692;23.278;2023-04-07T14:08:50;13.60;;;8.87;;
6131;SDS011;3097;42.692;23.278;2023-04-07T14:11:16;10.43;;;8.00;;
6131;SDS011;3097;42.692;23.278;2023-04-07T14:13:49;14.80;;;9.27;;
6131;SDS011;3097;42.692;23.278;2023-04-07T14:16:15;12.47;;;9.30;;
6131;SDS011;3097;42.692;23.278;2023-04-07T14:18:43;14.30;;;9.60;;
6131;SDS011;3097;42.692;23.278;2023-04-07T14:21:08;14.13;;;9.53;;
6131;SDS011;3097;42.692;23.278;2023-04-07T14:23:34;14.43;;;9.20;;
6131;SDS011;3097;42.692;23.278;2023-04-07T14:25:59;11.07;;;8.20;;
6131;SDS011;3097;42.692;23.278;2023-04-07T14:30:53;11.80;;;8.37;;
6131;SDS011;3097;42.692;23.278;2023-04-07T14:33:20;16.93;;;9.60;;
6131;SDS011;3097;42.692;23.278;2023-04-07T14:35:46;20.47;;;10.57;;
6131;SDS011;3097;42.692;23.278;2023-04-07T14:38:11;11.63;;;9.17;;
6131;SDS011;3097;42.692;23.278;2023-04-07T14:40:37;17.77;;;11.13;;
6131;SDS011;3097;42.692;23.278;2023-04-07T14:43:02;17.00;;;9.83;;
6131;SDS011;3097;42.692;23.278;2023-04-07T14:45:28;14.10;;;9.83;;
6131;SDS011;3097;42.692;23.278;2023-04-07T14:47:54;14.43;;;9.93;;
6131;SDS011;3097;42.692;23.278;2023-04-07T14:50:19;12.10;;;9.20;;
6131;SDS011;3097;42.692;23.278;2023-04-07T14:52:45;13.30;;;9.43;;
6131;SDS011;3097;42.692;23.278;2023-04-07T14:55:10;17.33;;;10.10;;
6131;SDS011;3097;42.692;23.278;2023-04-07T14:57:36;16.10;;;10.53;;
6131;SDS011;3097;42.692;23.278;2023-04-07T15:00:02;14.03;;;10.30;;
6131;SDS011;3097;42.692;23.278;2023-04-07T15:02:31;21.30;;;11.40;;
6131;SDS011;3097;42.692;23.278;2023-04-07T15:04:56;16.37;;;9.70;;
6131;SDS011;3097;42.692;23.278;2023-04-07T15:07:23;13.43;;;9.00;;
6131;SDS011;3097;42.692;23.278;2023-04-07T15:09:49;16.73;;;10.60;;
6131;SDS011;3097;42.692;23.278;2023-04-07T15:12:15;15.60;;;10.13;;
6131;SDS011;3097;42.692;23.278;2023-04-07T15:14:40;14.00;;;9.83;;
6131;SDS011;3097;42.692;23.278;2023-04-07T15:17:09;15.97;;;10.50;;